KBVO

Bartlesville Municipal Airport

Bartlesville, Oklahoma, USA
METAR KBVO 261253Z AUTO 00000KT 10SM CLR 22/20 A2987 RMK AO2 SLP103 T02170200
Observed Flight Rules
May-26 @ 12:53 UTC (43 minutes ago) Visual Flight Rules
Visibility Clouds
10 miles
  • Clear skies
Temperatures Readings
Current 22°C / 72°F
Dewpoint 20°C / 68°F
Humidity 88%
Altimeter 29.87" Hg
Pressure 1010.3 hPa
Elevation 210
METAR KBVO 261253Z AUTO 00000KT 10SM CLR 22/20 A2987 RMK AO2 SLP103 T02170200
Observed Flight Rules
May-26 @ 12:53 UTC
(43 minutes ago)
VFR
Clouds
  • Clear skies
Temperature Dewpoint
22°C / 72°F 20°C / 68°F
Humidity Altimeter Pressure
88% 29.87" Hg 1010.3 hPa